createdAt,value
2016-09-23T00:00:19.151Z,97.88
2016-09-23T00:01:19.116Z,97.79
2016-09-23T00:02:19.079Z,97.98
2016-09-23T00:03:19.040Z,98.46
2016-09-23T00:04:19.004Z,98.27
2016-09-23T00:05:18.966Z,98.36
2016-09-23T00:06:18.625Z,98.83
2016-09-23T00:07:18.893Z,98.36
2016-09-23T00:08:18.856Z,98.36
2016-09-23T00:09:18.821Z,98.55
2016-09-23T00:10:18.478Z,98.65
2016-09-23T00:11:18.745Z,98.27
2016-09-23T00:12:18.709Z,98.36
2016-09-23T00:13:18.669Z,98.55
2016-09-23T00:14:18.634Z,98.55
2016-09-23T00:15:18.595Z,98.46
2016-09-23T00:16:18.560Z,98.46
2016-09-23T00:17:18.524Z,98.22
2016-09-23T00:18:18.486Z,98.46
2016-09-23T00:19:18.450Z,98.27
2016-09-23T00:20:18.411Z,98.36
2016-09-23T00:21:18.374Z,98.41
2016-09-23T00:22:18.334Z,98.55
2016-09-23T00:23:18.303Z,97.93
2016-09-23T00:24:18.260Z,98.5
2016-09-23T00:25:18.226Z,98.74
2016-09-23T00:26:18.189Z,98.5
2016-09-23T00:27:18.155Z,98.5
2016-09-23T00:28:17.813Z,98.41
2016-09-23T00:29:18.080Z,98.41
2016-09-23T00:30:18.046Z,98.5
2016-09-23T00:31:18.002Z,98.5
2016-09-23T00:32:17.967Z,98.12
2016-09-23T00:33:17.935Z,98.12
2016-09-23T00:34:17.893Z,98.6
2016-09-23T00:35:17.856Z,98.12
2016-09-23T00:36:17.820Z,98.22
2016-09-23T00:37:17.782Z,98.41
2016-09-23T00:38:17.745Z,98.12
2016-09-23T00:39:17.707Z,98.6
2016-09-23T00:40:17.674Z,98.22
2016-09-23T00:41:17.637Z,98.12
2016-09-23T00:42:17.293Z,98.22
2016-09-23T00:43:17.560Z,98.41
2016-09-23T00:44:17.220Z,98.31
2016-09-23T00:45:17.488Z,98.5
2016-09-23T00:46:17.449Z,98.5
2016-09-23T00:47:17.408Z,98.79
2016-09-23T00:48:17.378Z,98.97
2016-09-23T00:49:17.035Z,98.5
2016-09-23T00:50:17.299Z,98.41
2016-09-23T00:51:17.264Z,98.5
2016-09-23T00:52:17.227Z,98.5
2016-09-23T00:53:17.187Z,98.6
2016-09-23T00:54:17.149Z,98.6
2016-09-23T00:55:16.811Z,98.5
2016-09-23T00:56:16.774Z,98.79
2016-09-23T00:57:17.040Z,98.6
2016-09-23T00:58:17.013Z,98.5
2016-09-23T00:59:16.964Z,98.69
2016-09-23T01:00:16.941Z,98.6
2016-09-23T01:01:16.893Z,98.79
2016-09-23T01:02:16.554Z,98.5
2016-09-23T01:03:16.815Z,98.5
2016-09-23T01:04:16.780Z,98.79
2016-09-23T01:05:16.437Z,98.79
2016-09-23T01:06:16.708Z,98.6
2016-09-23T01:07:16.669Z,98.5
2016-09-23T01:08:16.629Z,98.79
2016-09-23T01:09:16.608Z,98.5
2016-09-23T01:10:16.563Z,98.79
2016-09-23T01:11:16.217Z,98.79
2016-09-23T01:12:16.480Z,98.69
2016-09-23T01:13:16.142Z,98.97
2016-09-23T01:14:16.104Z,98.97
2016-09-23T01:15:16.372Z,98.6
2016-09-23T01:16:16.031Z,99.07
2016-09-23T01:17:16.294Z,99.07
2016-09-23T01:18:15.960Z,98.97
2016-09-23T01:19:16.219Z,99.07
2016-09-23T01:20:15.893Z,98.97
2016-09-23T01:21:16.146Z,98.6
2016-09-23T01:22:15.807Z,98.79
2016-09-23T01:23:16.080Z,99.07
2016-09-23T01:24:16.037Z,99.07
2016-09-23T01:25:15.998Z,98.79
2016-09-23T01:26:15.961Z,99.16
2016-09-23T01:27:15.621Z,98.69
2016-09-23T01:28:15.887Z,98.88
2016-09-23T01:29:15.849Z,99.07
2016-09-23T01:30:15.810Z,99.07
2016-09-23T01:31:15.776Z,98.88
2016-09-23T01:32:15.737Z,98.97
2016-09-23T01:33:15.704Z,98.97
2016-09-23T01:34:15.362Z,98.88
2016-09-23T01:35:15.626Z,98.69
2016-09-23T01:36:15.597Z,98.79
2016-09-23T01:37:15.550Z,98.79
2016-09-23T01:38:15.513Z,98.88
2016-09-23T01:39:15.475Z,98.69
2016-09-23T01:40:15.443Z,98.97
2016-09-23T01:41:15.405Z,99.16
2016-09-23T01:42:15.365Z,98.88
2016-09-23T01:43:15.328Z,98.69
2016-09-23T01:44:15.289Z,98.88
2016-09-23T01:45:15.260Z,98.69
2016-09-23T01:46:14.913Z,98.79
2016-09-23T01:47:15.180Z,98.69
2016-09-23T01:48:14.842Z,98.88
2016-09-23T01:49:15.102Z,98.88
2016-09-23T01:50:14.765Z,98.88
2016-09-23T01:51:15.029Z,98.97
2016-09-23T01:52:14.998Z,99.07
2016-09-23T01:53:14.955Z,98.88
2016-09-23T01:54:14.617Z,99.07
2016-09-23T01:55:14.882Z,98.97
2016-09-23T01:56:14.844Z,98.88
2016-09-23T01:57:14.808Z,98.69
2016-09-23T01:58:14.772Z,98.88
2016-09-23T01:59:14.733Z,98.88
2016-09-23T02:00:14.693Z,98.97
2016-09-23T02:01:14.659Z,98.88
2016-09-23T02:02:14.622Z,98.88
2016-09-23T02:03:14.587Z,98.88
2016-09-23T02:04:14.246Z,99.16
2016-09-23T02:05:14.508Z,99.07
2016-09-23T02:06:14.475Z,99.16
2016-09-23T02:07:14.134Z,98.88
2016-09-23T02:08:14.401Z,98.97
2016-09-23T02:09:14.057Z,98.69
2016-09-23T02:10:14.021Z,98.97
2016-09-23T02:11:14.289Z,99.16
2016-09-23T02:12:14.253Z,98.6
2016-09-23T02:13:14.213Z,98.69
2016-09-23T02:14:14.173Z,98.6
2016-09-23T02:15:14.136Z,98.88
2016-09-23T02:16:14.099Z,98.97
2016-09-23T02:17:14.064Z,98.88
2016-09-23T02:18:14.024Z,99.07
2016-09-23T02:19:13.990Z,99.07
2016-09-23T02:20:13.948Z,98.79
2016-09-23T02:21:13.611Z,99.26
2016-09-23T02:22:13.875Z,98.41
2016-09-23T02:23:13.535Z,99.07
2016-09-23T02:24:13.800Z,99.07
2016-09-23T02:25:13.769Z,98.97
2016-09-23T02:26:13.726Z,99.26
2016-09-23T02:27:13.387Z,99.07
2016-09-23T02:28:13.368Z,98.97
2016-09-23T02:29:13.613Z,99.07
2016-09-23T02:30:13.580Z,99.07
2016-09-23T02:31:13.542Z,98.79
2016-09-23T02:32:13.200Z,99.26
2016-09-23T02:33:13.465Z,98.97
2016-09-23T02:34:13.428Z,99.07
2016-09-23T02:35:13.390Z,99.07
2016-09-23T02:36:13.354Z,99.07
2016-09-23T02:37:13.325Z,98.97
2016-09-23T02:38:13.278Z,98.97
2016-09-23T02:39:12.940Z,98.88
2016-09-23T02:40:13.204Z,98.64
2016-09-23T02:41:13.164Z,98.97
2016-09-23T02:42:13.139Z,98.97
2016-09-23T02:43:13.092Z,98.93
2016-09-23T02:44:13.056Z,98.97
2016-09-23T02:45:13.015Z,98.55
2016-09-23T02:46:12.982Z,98.74
2016-09-23T02:47:12.951Z,98.64
2016-09-23T02:48:12.905Z,98.64
2016-09-23T02:49:12.565Z,99.11
2016-09-23T02:50:12.528Z,99.02
2016-09-23T02:51:12.501Z,98.64
2016-09-23T02:52:12.754Z,99.02
2016-09-23T02:53:12.720Z,98.6
2016-09-23T02:54:12.686Z,98.64
2016-09-23T02:55:12.641Z,98.83
2016-09-23T02:56:12.606Z,99.21
2016-09-23T02:57:12.266Z,98.97
2016-09-23T02:58:12.531Z,98.97
2016-09-23T02:59:12.493Z,99.78
2016-09-23T03:00:12.155Z,99.84
2016-09-23T03:01:12.432Z,99.55
2016-09-23T03:02:12.079Z,98.88
2016-09-23T03:03:12.051Z,98.97
2016-09-23T03:04:12.303Z,99.64
2016-09-23T03:05:11.967Z,99.36
2016-09-23T03:06:12.232Z,99.84
2016-09-23T03:07:12.193Z,99.64
2016-09-23T03:08:12.156Z,99.64
2016-09-23T03:09:12.117Z,99.36
2016-09-23T03:10:12.083Z,99.55
2016-09-23T03:11:11.742Z,99.99
2016-09-23T03:12:12.008Z,99.55
2016-09-23T03:13:11.972Z,99.45
2016-09-23T03:14:11.946Z,99.74
2016-09-23T03:15:11.896Z,98.97
2016-09-23T03:16:11.854Z,99.45
2016-09-23T03:17:11.843Z,99.55
2016-09-23T03:18:11.781Z,99.64
2016-09-23T03:19:11.747Z,99.55
2016-09-23T03:20:11.708Z,99.74
2016-09-23T03:21:11.672Z,99.64
2016-09-23T03:22:11.633Z,99.84
2016-09-23T03:23:11.596Z,99.64
2016-09-23T03:24:11.559Z,99.55
2016-09-23T03:25:11.519Z,99.55
2016-09-23T03:26:11.485Z,99.45
2016-09-23T03:27:11.447Z,99.45
2016-09-23T03:28:11.410Z,99.36
2016-09-23T03:29:11.373Z,98.88
2016-09-23T03:30:11.033Z,99.64
2016-09-23T03:31:11.298Z,99.16
2016-09-23T03:32:11.261Z,99.64
2016-09-23T03:33:10.923Z,99.26
2016-09-23T03:34:11.186Z,99.16
2016-09-23T03:35:11.154Z,99.07
2016-09-23T03:36:11.114Z,99.07
2016-09-23T03:37:10.773Z,99.55
2016-09-23T03:38:11.044Z,99.64
2016-09-23T03:39:10.998Z,99.74
2016-09-23T03:40:10.962Z,99.36
2016-09-23T03:41:10.923Z,99.16
2016-09-23T03:42:10.891Z,99.84
2016-09-23T03:43:10.850Z,99.45
2016-09-23T03:44:10.510Z,99.84
2016-09-23T03:45:10.472Z,99.55
2016-09-23T03:46:10.739Z,99.84
2016-09-23T03:47:10.399Z,99.84
2016-09-23T03:48:10.665Z,99.84
2016-09-23T03:49:10.626Z,99.84
2016-09-23T03:50:10.589Z,99.07
2016-09-23T03:51:10.556Z,98.97
2016-09-23T03:52:10.213Z,98.69
2016-09-23T03:53:10.481Z,98.88
2016-09-23T03:54:10.445Z,98.69
2016-09-23T03:55:10.407Z,98.79
2016-09-23T03:56:10.369Z,98.69
2016-09-23T03:57:10.330Z,99.07
2016-09-23T03:58:10.293Z,98.88
2016-09-23T03:59:09.955Z,98.88
2016-09-23T04:00:10.220Z,98.74
2016-09-23T04:01:10.182Z,99.12
2016-09-23T04:02:09.844Z,98.93
2016-09-23T04:03:10.109Z,98.83
2016-09-23T04:04:10.074Z,98.83
2016-09-23T04:05:10.032Z,98.55
2016-09-23T04:06:09.998Z,98.83
2016-09-23T04:07:09.959Z,98.93
2016-09-23T04:08:09.921Z,98.74
2016-09-23T04:09:09.588Z,99.12
2016-09-23T04:10:09.850Z,98.74
2016-09-23T04:11:09.813Z,98.83
2016-09-23T04:12:09.774Z,98.65
2016-09-23T04:13:09.743Z,98.74
2016-09-23T04:14:09.398Z,98.74
2016-09-23T04:15:09.661Z,98.83
2016-09-23T04:16:09.626Z,98.93
2016-09-23T04:17:09.598Z,98.83
2016-09-23T04:18:09.552Z,99.02
2016-09-23T04:19:09.515Z,98.74
2016-09-23T04:20:09.490Z,99.12
2016-09-23T04:21:09.441Z,99.02
2016-09-23T04:22:09.404Z,99.12
2016-09-23T04:23:09.367Z,98.93
2016-09-23T04:24:09.025Z,99.02
2016-09-23T04:25:09.294Z,99.12
2016-09-23T04:26:09.256Z,98.74
2016-09-23T04:27:08.913Z,99.02
2016-09-23T04:28:09.183Z,98.74
2016-09-23T04:29:09.142Z,99.02
2016-09-23T04:30:09.107Z,98.74
2016-09-23T04:31:09.075Z,98.46
2016-09-23T04:32:09.030Z,98.55
2016-09-23T04:33:08.995Z,98.55
2016-09-23T04:34:08.959Z,98.27
2016-09-23T04:35:08.921Z,98.55
2016-09-23T04:36:08.885Z,98.65
2016-09-23T04:37:08.847Z,98.74
2016-09-23T04:38:08.811Z,98.17
2016-09-23T04:39:08.773Z,98.27
2016-09-23T04:40:08.737Z,98.46
2016-09-23T04:41:08.697Z,98.08
2016-09-23T04:42:08.661Z,97.98
2016-09-23T04:43:08.326Z,97.79
2016-09-23T04:44:08.588Z,98.17
2016-09-23T04:45:08.552Z,97.84
2016-09-23T04:46:08.515Z,97.98
2016-09-23T04:47:08.480Z,97.98
2016-09-23T04:48:08.444Z,98.13
2016-09-23T04:49:08.404Z,98.17
2016-09-23T04:50:08.368Z,97.79
2016-09-23T04:51:08.331Z,97.6
2016-09-23T04:52:08.295Z,97.69
2016-09-23T04:53:08.257Z,97.36
2016-09-23T04:54:08.221Z,97.5
2016-09-23T04:55:07.881Z,97.31
2016-09-23T04:56:08.148Z,97.27
2016-09-23T04:57:08.111Z,97.17
2016-09-23T04:58:08.074Z,97.27
2016-09-23T04:59:08.037Z,97.27
2016-09-23T05:00:08.003Z,97.27
2016-09-23T05:01:07.662Z,96.79
2016-09-23T05:02:07.935Z,97.46
2016-09-23T05:03:07.586Z,96.79
2016-09-23T05:04:07.854Z,97.08
2016-09-23T05:05:07.530Z,97.17
2016-09-23T05:06:07.475Z,97.17
2016-09-23T05:07:07.745Z,96.98
2016-09-23T05:08:07.706Z,96.89
2016-09-23T05:09:07.363Z,97.08
2016-09-23T05:10:07.638Z,96.98
2016-09-23T05:11:07.596Z,96.89
2016-09-23T05:12:07.563Z,96.89
2016-09-23T05:13:07.524Z,96.89
2016-09-23T05:14:07.485Z,96.6
2016-09-23T05:15:07.447Z,96.79
2016-09-23T05:16:07.414Z,97.08
2016-09-23T05:17:07.375Z,96.89
2016-09-23T05:18:07.342Z,96.89
2016-09-23T05:19:07.001Z,96.75
2016-09-23T05:20:07.270Z,96.55
2016-09-23T05:21:06.925Z,96.65
2016-09-23T05:22:07.195Z,96.65
2016-09-23T05:23:06.854Z,96.36
2016-09-23T05:24:07.122Z,96.36
2016-09-23T05:25:07.086Z,96.08
2016-09-23T05:26:07.050Z,96.17
2016-09-23T05:27:07.014Z,96.27
2016-09-23T05:28:06.980Z,95.98
2016-09-23T05:29:06.939Z,96.27
2016-09-23T05:30:06.904Z,95.98
2016-09-23T05:31:06.564Z,96.17
2016-09-23T05:32:06.828Z,96.08
2016-09-23T05:33:06.793Z,96.27
2016-09-23T05:34:06.759Z,95.94
2016-09-23T05:35:06.723Z,95.6
2016-09-23T05:36:06.687Z,96.03
2016-09-23T05:37:06.345Z,95.75
2016-09-23T05:38:06.612Z,95.75
2016-09-23T05:39:06.575Z,95.84
2016-09-23T05:40:06.541Z,95.17
2016-09-23T05:41:06.201Z,95.27
2016-09-23T05:42:06.466Z,95.36
2016-09-23T05:43:06.430Z,95.17
2016-09-23T05:44:06.094Z,94.79
2016-09-23T05:45:06.361Z,95.27
2016-09-23T05:46:06.325Z,95.36
2016-09-23T05:47:06.286Z,94.98
2016-09-23T05:48:06.253Z,95.17
2016-09-23T05:49:06.216Z,94.89
2016-09-23T05:50:06.180Z,94.98
2016-09-23T05:51:06.154Z,95.08
2016-09-23T05:52:06.111Z,94.74
2016-09-23T05:53:06.072Z,94.56
2016-09-23T05:54:06.037Z,94.56
2016-09-23T05:55:05.999Z,94.17
2016-09-23T05:56:05.970Z,94.17
2016-09-23T05:57:05.928Z,93.98
2016-09-23T05:58:05.894Z,93.88
2016-09-23T05:59:05.856Z,94.37
2016-09-23T06:00:05.823Z,93.79
2016-09-23T06:01:05.786Z,93.79
2016-09-23T06:02:05.448Z,93.41
2016-09-23T06:03:05.715Z,93.41
2016-09-23T06:04:05.677Z,93.6
2016-09-23T06:05:05.642Z,93.36
2016-09-23T06:06:05.610Z,93.22
2016-09-23T06:07:05.574Z,92.79
2016-09-23T06:08:05.535Z,93.17
2016-09-23T06:09:05.201Z,93.27
2016-09-23T06:10:05.469Z,93.27
2016-09-23T06:11:05.429Z,93.46
2016-09-23T06:12:05.399Z,93.27
2016-09-23T06:13:05.361Z,93.36
2016-09-23T06:14:05.326Z,93.36
2016-09-23T06:15:04.986Z,93.46
2016-09-23T06:16:05.252Z,93.27
2016-09-23T06:17:05.220Z,93.46
2016-09-23T06:18:04.881Z,93.36
2016-09-23T06:19:05.151Z,93.27
2016-09-23T06:20:05.114Z,93.17
2016-09-23T06:21:05.083Z,93.08
2016-09-23T06:22:05.043Z,93.17
2016-09-23T06:23:05.007Z,93.12
2016-09-23T06:24:04.975Z,93.51
2016-09-23T06:25:04.937Z,93.02
2016-09-23T06:26:04.901Z,93.02
2016-09-23T06:27:04.872Z,93.6
2016-09-23T06:28:04.837Z,93.22
2016-09-23T06:29:04.800Z,92.74
2016-09-23T06:30:04.764Z,92.36
2016-09-23T06:31:04.729Z,92.55
2016-09-23T06:32:04.693Z,92.83
2016-09-23T06:33:04.658Z,92.26
2016-09-23T06:34:04.622Z,92.21
2016-09-23T06:35:04.286Z,92.21
2016-09-23T06:36:04.559Z,92.12
2016-09-23T06:37:04.520Z,92.12
2016-09-23T06:38:04.483Z,91.64
2016-09-23T06:39:04.149Z,91.45
2016-09-23T06:40:04.416Z,91.74
2016-09-23T06:41:04.379Z,91.36
2016-09-23T06:42:04.344Z,91.36
2016-09-23T06:43:04.313Z,91.07
2016-09-23T06:44:04.279Z,91.36
2016-09-23T06:45:04.243Z,91.45
2016-09-23T06:46:04.213Z,91.07
2016-09-23T06:47:04.172Z,90.78
2016-09-23T06:48:04.138Z,91.36
2016-09-23T06:49:04.105Z,90.69
2016-09-23T06:50:04.071Z,90.83
2016-09-23T06:51:03.733Z,90.92
2016-09-23T06:52:03.698Z,91.02
2016-09-23T06:53:03.969Z,90.25
2016-09-23T06:54:03.931Z,90.54
2016-09-23T06:55:03.900Z,90.2
2016-09-23T06:56:03.565Z,89.34
2016-09-23T06:57:03.528Z,89.82
2016-09-23T06:58:03.796Z,89.1
2016-09-23T06:59:03.760Z,88.91
2016-09-23T07:00:03.732Z,88.24
2016-09-23T07:01:03.697Z,88.15
2016-09-23T07:02:03.665Z,87.71
2016-09-23T07:03:03.330Z,87.14
2016-09-23T07:04:03.595Z,86.85
2016-09-23T07:05:03.564Z,86.28
2016-09-23T07:06:03.529Z,86.47
2016-09-23T07:07:03.496Z,86.08
2016-09-23T07:08:03.463Z,85.61
2016-09-23T07:09:03.129Z,85.65
2016-09-23T07:10:03.398Z,85.08
2016-09-23T07:11:03.364Z,85.08
2016-09-23T07:12:03.332Z,84.79
2016-09-23T07:13:03.297Z,85.08
2016-09-23T07:14:02.963Z,84.79
2016-09-23T07:15:03.233Z,84.79
2016-09-23T07:16:02.898Z,84.88
2016-09-23T07:17:03.167Z,84.79
2016-09-23T07:18:03.135Z,85.17
2016-09-23T07:19:03.104Z,85.13
2016-09-23T07:20:03.070Z,85.51
2016-09-23T07:21:03.039Z,85.13
2016-09-23T07:22:02.705Z,85.13
2016-09-23T07:23:02.972Z,85.22
2016-09-23T07:24:02.941Z,85.71
2016-09-23T07:25:02.906Z,85.51
2016-09-23T07:26:02.877Z,85.51
2016-09-23T07:27:02.539Z,86.08
2016-09-23T07:28:02.810Z,85.8
2016-09-23T07:29:02.775Z,86.08
2016-09-23T07:30:02.443Z,86.18
2016-09-23T07:31:02.706Z,86.37
2016-09-23T07:32:02.676Z,86.08
2016-09-23T07:33:02.644Z,86.28
2016-09-23T07:34:02.611Z,86.08
2016-09-23T07:35:02.576Z,85.99
2016-09-23T07:36:02.544Z,86.28
2016-09-23T07:37:02.512Z,85.89
2016-09-23T07:38:02.478Z,85.61
2016-09-23T07:39:02.143Z,85.41
2016-09-23T07:40:02.414Z,85.71
2016-09-23T07:41:02.380Z,85.8
2016-09-23T07:42:02.347Z,85.22
2016-09-23T07:43:02.010Z,84.84
2016-09-23T07:44:02.285Z,84.84
2016-09-23T07:45:02.251Z,84.75
2016-09-23T07:46:02.214Z,83.6
2016-09-23T07:47:02.183Z,84.69
2016-09-23T07:48:01.846Z,83.64
2016-09-23T07:49:02.118Z,83.36
2016-09-23T07:50:02.086Z,83.3
2016-09-23T07:51:02.050Z,82.73
2016-09-23T07:52:02.019Z,82.92
2016-09-23T07:53:01.986Z,82.63
2016-09-23T07:54:01.961Z,83.01
2016-09-23T07:55:01.617Z,82.92
2016-09-23T07:56:01.890Z,82.3
2016-09-23T07:57:01.857Z,82.24
2016-09-23T07:58:01.821Z,82.53
2016-09-23T07:59:01.796Z,82.43
2016-09-23T08:00:01.758Z,82.34
2016-09-23T08:01:01.425Z,82.34
2016-09-23T08:02:01.393Z,81.96
2016-09-23T08:03:01.664Z,82.15
2016-09-23T08:04:01.639Z,81.77
2016-09-23T08:05:01.292Z,81.67
2016-09-23T08:06:01.574Z,81.29
2016-09-23T08:07:01.532Z,81.57
2016-09-23T08:08:01.501Z,81.29
2016-09-23T08:09:01.166Z,81.1
2016-09-23T08:10:01.436Z,81.2
2016-09-23T08:11:01.404Z,81.1
2016-09-23T08:12:01.369Z,81.1
2016-09-23T08:13:01.036Z,80.43
2016-09-23T08:14:01.307Z,81.1
2016-09-23T08:15:00.972Z,80.62
2016-09-23T08:16:01.245Z,81
2016-09-23T08:17:01.207Z,80.37
2016-09-23T08:18:00.873Z,79.8
2016-09-23T08:19:00.846Z,78.4
2016-09-23T08:20:00.811Z,77.38
2016-09-23T08:21:00.778Z,76.32
2016-09-23T08:22:01.055Z,75.21
2016-09-23T08:23:00.717Z,73.97
2016-09-23T08:24:00.987Z,72.66
2016-09-23T08:25:00.658Z,71.89
2016-09-23T08:26:00.927Z,70.87
2016-09-23T08:27:00.893Z,70.04
2016-09-23T08:28:00.863Z,68.7
2016-09-23T08:29:00.829Z,68.15
2016-09-23T08:30:00.802Z,67.68
2016-09-23T08:31:00.773Z,67.96
2016-09-23T08:32:00.742Z,67.68
2016-09-23T08:33:00.716Z,68.06
2016-09-23T08:34:00.682Z,68.44
2016-09-23T08:35:00.648Z,67.48
2016-09-23T08:36:00.322Z,67.77
2016-09-23T08:37:00.590Z,67.25
2016-09-23T08:38:00.576Z,67.58
2016-09-23T08:39:00.537Z,67.19
2016-09-23T08:40:00.200Z,67.1
2016-09-23T08:41:00.171Z,66.23
2016-09-23T08:42:00.442Z,65.56
2016-09-23T08:43:00.415Z,65.01
2016-09-23T08:44:00.392Z,64.05
2016-09-23T08:45:00.054Z,65.2
2016-09-23T08:46:00.023Z,65.69
2016-09-23T08:46:59.991Z,65.78
2016-09-23T08:48:00.264Z,65.84
2016-09-23T08:49:00.234Z,66.71
2016-09-23T08:50:00.204Z,67.1
2016-09-23T08:51:00.173Z,66.97
2016-09-23T08:52:00.147Z,66.68
2016-09-23T08:52:59.815Z,67.16
2016-09-23T08:54:00.089Z,67.07
2016-09-23T08:55:00.063Z,65.66
2016-09-23T08:56:00.026Z,64.63
2016-09-23T08:57:00.001Z,63.67
2016-09-23T08:57:59.969Z,62.74
2016-09-23T08:58:59.940Z,60.94
2016-09-23T08:59:59.913Z,60.3
2016-09-23T09:00:59.880Z,59.55
2016-09-23T09:01:59.851Z,59.17
2016-09-23T09:02:59.521Z,58.78
2016-09-23T09:03:59.828Z,60
2016-09-23T09:04:59.765Z,60.49
2016-09-23T09:05:59.737Z,60.55
2016-09-23T09:06:59.706Z,61.8
2016-09-23T09:07:59.679Z,61.87
2016-09-23T09:08:59.652Z,62.45
2016-09-23T09:09:59.623Z,62.74
2016-09-23T09:10:59.287Z,62.99
2016-09-23T09:11:59.559Z,63.48
2016-09-23T09:12:59.535Z,63.95
2016-09-23T09:13:59.505Z,64.25
2016-09-23T09:14:59.483Z,64.05
2016-09-23T09:15:59.447Z,64.4
2016-09-23T09:16:59.117Z,64.4
2016-09-23T09:17:59.086Z,64.6
2016-09-23T09:18:59.356Z,64.4
2016-09-23T09:19:59.329Z,64.22
2016-09-23T09:20:59.298Z,64.5
2016-09-23T09:21:59.273Z,63.86
2016-09-23T09:22:59.244Z,64.05
2016-09-23T09:23:58.908Z,63.28
2016-09-23T09:24:59.188Z,62.71
2016-09-23T09:25:59.156Z,61.84
2016-09-23T09:26:58.824Z,61.65
2016-09-23T09:27:59.101Z,61.55
2016-09-23T09:28:59.073Z,62.26
2016-09-23T09:29:59.038Z,62.45
2016-09-23T09:30:58.708Z,62.26
2016-09-23T09:31:58.677Z,61.77
2016-09-23T09:32:58.949Z,61.58
2016-09-23T09:33:58.921Z,62.06
2016-09-23T09:34:58.593Z,62.06
2016-09-23T09:35:58.561Z,62.45
2016-09-23T09:36:58.833Z,62.71
2016-09-23T09:37:58.804Z,62.51
2016-09-23T09:38:58.786Z,62.32
2016-09-23T09:39:58.449Z,62.41
2016-09-23T09:40:58.416Z,61.94
2016-09-23T09:41:58.386Z,62.16
2016-09-23T09:42:58.665Z,61.1
2016-09-23T09:43:58.336Z,60.17
2016-09-23T09:44:58.599Z,59.33
2016-09-23T09:45:58.571Z,58.2
2016-09-23T09:46:58.241Z,58.01
2016-09-23T09:47:58.517Z,56.88
2016-09-23T09:48:58.191Z,56.72
2016-09-23T09:49:58.467Z,55.85
2016-09-23T09:50:58.426Z,55.85
2016-09-23T09:51:58.408Z,55.18
2016-09-23T09:52:58.379Z,55.18
2016-09-23T09:53:58.344Z,55.08
2016-09-23T09:54:58.316Z,55.49
2016-09-23T09:55:58.286Z,54.79
2016-09-23T09:56:58.263Z,54.91
2016-09-23T09:57:58.238Z,54.91
2016-09-23T09:58:58.205Z,55.01
2016-09-23T09:59:57.880Z,54.43
2016-09-23T10:00:58.152Z,54.07
2016-09-23T10:01:58.122Z,53.01
2016-09-23T10:02:58.092Z,52.55
2016-09-23T10:03:57.766Z,51.23
2016-09-23T10:04:57.739Z,49.32
2016-09-23T10:05:58.012Z,47.33
2016-09-23T10:06:57.687Z,46.12
2016-09-23T10:07:57.960Z,44.59
2016-09-23T10:08:57.933Z,43.27
2016-09-23T10:09:57.910Z,41.84
2016-09-23T10:10:57.882Z,40.79
2016-09-23T10:11:57.554Z,39.84
2016-09-23T10:12:57.534Z,39.28
2016-09-23T10:13:57.807Z,39.2
2016-09-23T10:14:57.788Z,38.52
2016-09-23T10:15:57.778Z,37.76
2016-09-23T10:16:57.740Z,36.12
2016-09-23T10:17:57.709Z,35.44
2016-09-23T10:18:57.689Z,35.36
2016-09-23T10:19:57.670Z,34.11
2016-09-23T10:20:57.639Z,33.93
2016-09-23T10:21:57.614Z,34.22
2016-09-23T10:22:57.586Z,34.24
2016-09-23T10:23:57.564Z,34.71
2016-09-23T10:24:57.536Z,34.5
2016-09-23T10:25:57.516Z,34.78
2016-09-23T10:26:57.189Z,34.29
2016-09-23T10:27:57.170Z,34.11
2016-09-23T10:28:57.143Z,33.44
2016-09-23T10:29:57.122Z,32.78
2016-09-23T10:30:57.096Z,32.58
2016-09-23T10:31:57.377Z,32.29
2016-09-23T10:32:57.051Z,32.39
2016-09-23T10:33:57.331Z,31.99
2016-09-23T10:34:57.307Z,31.8
2016-09-23T10:35:57.284Z,31.62
2016-09-23T10:36:57.265Z,30.96
2016-09-23T10:37:57.237Z,30.38
2016-09-23T10:38:56.918Z,29.61
2016-09-23T10:39:56.890Z,29.53
2016-09-23T10:40:56.881Z,29.04
2016-09-23T10:41:56.848Z,29.34
2016-09-23T10:42:57.129Z,28.47
2016-09-23T10:43:56.807Z,27.98
2016-09-23T10:44:56.783Z,27.98
2016-09-23T10:45:57.064Z,27.31
2016-09-23T10:46:57.039Z,27.39
2016-09-23T10:47:56.719Z,27.2
2016-09-23T10:48:56.998Z,27.29
2016-09-23T10:49:56.977Z,27.69
2016-09-23T10:50:56.954Z,27.78
2016-09-23T10:51:56.933Z,28.28
2016-09-23T10:52:56.611Z,28.26
2016-09-23T10:53:56.890Z,28.16
2016-09-23T10:54:56.868Z,28.15
2016-09-23T10:55:56.846Z,28.74
2016-09-23T10:56:56.821Z,28.83
2016-09-23T10:57:56.500Z,28.55
2016-09-23T10:58:56.780Z,27.97
2016-09-23T10:59:56.459Z,28.16
2016-09-23T11:00:56.739Z,28.36
2016-09-23T11:01:56.419Z,28.34
2016-09-23T11:02:56.694Z,28.64
2016-09-23T11:03:56.670Z,28.63
2016-09-23T11:04:56.648Z,28.53
2016-09-23T11:05:56.632Z,28.72
2016-09-23T11:06:56.607Z,28.23
2016-09-23T11:07:56.583Z,28.14
2016-09-23T11:08:56.257Z,28.33
2016-09-23T11:09:56.537Z,28.23
2016-09-23T11:10:56.515Z,28.53
2016-09-23T11:11:56.497Z,28.23
2016-09-23T11:12:56.167Z,28.71
2016-09-23T11:13:56.463Z,28.61
2016-09-23T11:14:56.426Z,29.08
2016-09-23T11:15:56.405Z,29.57
2016-09-23T11:16:56.382Z,30.16
2016-09-23T11:17:56.360Z,29.85
2016-09-23T11:18:56.037Z,29.66
2016-09-23T11:19:56.319Z,30.13
2016-09-23T11:20:55.990Z,31.76
2016-09-23T11:21:56.268Z,32.79
2016-09-23T11:22:55.945Z,33.36
2016-09-23T11:23:55.919Z,33.64
2016-09-23T11:24:55.905Z,34.52
2016-09-23T11:25:55.875Z,34.8
2016-09-23T11:26:56.153Z,34.9
2016-09-23T11:27:56.129Z,35.27
2016-09-23T11:28:56.103Z,35.57
2016-09-23T11:29:55.777Z,35.86
2016-09-23T11:30:56.061Z,36.44
2016-09-23T11:31:55.734Z,36.22
2016-09-23T11:32:55.706Z,36.32
2016-09-23T11:33:55.985Z,36.81
2016-09-23T11:34:55.961Z,37.39
2016-09-23T11:35:55.937Z,37.37
2016-09-23T11:36:55.911Z,37.28
2016-09-23T11:37:55.887Z,37.94
2016-09-23T11:38:55.863Z,38.42
2016-09-23T11:39:55.836Z,38.79
2016-09-23T11:40:55.822Z,38.99
2016-09-23T11:41:55.788Z,39.65
2016-09-23T11:42:55.764Z,39.26
2016-09-23T11:43:55.736Z,39.72
2016-09-23T11:44:55.721Z,40.4
2016-09-23T11:45:55.386Z,41.16
2016-09-23T11:46:55.660Z,41.52
2016-09-23T11:47:55.335Z,42.37
2016-09-23T11:48:55.610Z,43.44
2016-09-23T11:49:55.585Z,43.8
2016-09-23T11:50:55.559Z,44.48
2016-09-23T11:51:55.232Z,45.04
2016-09-23T11:52:55.507Z,45.52
2016-09-23T11:53:55.481Z,46.47
2016-09-23T11:54:55.452Z,47.02
2016-09-23T11:55:55.131Z,47.89
2016-09-23T11:56:55.400Z,47.89
2016-09-23T11:57:55.076Z,47.89
2016-09-23T11:58:55.053Z,47.81
2016-09-23T11:59:55.019Z,48.01
2016-09-23T12:00:54.991Z,47.94
2016-09-23T12:01:54.966Z,47.84
2016-09-23T12:02:55.240Z,48.23
2016-09-23T12:03:55.218Z,47.55
2016-09-23T12:04:55.190Z,47.84
2016-09-23T12:05:54.858Z,47.16
2016-09-23T12:06:55.133Z,47.45
2016-09-23T12:07:55.104Z,47.26
2016-09-23T12:08:55.082Z,47.55
2016-09-23T12:09:55.049Z,47.45
2016-09-23T12:10:55.026Z,47.45
2016-09-23T12:11:54.996Z,47.07
2016-09-23T12:12:54.969Z,48.03
2016-09-23T12:13:54.944Z,46.97
2016-09-23T12:14:54.613Z,47.45
2016-09-23T12:15:54.888Z,47.91
2016-09-23T12:16:54.562Z,48.69
2016-09-23T12:17:54.834Z,48.49
2016-09-23T12:18:54.816Z,48.59
2016-09-23T12:19:54.477Z,48.39
2016-09-23T12:20:54.449Z,48.01
2016-09-23T12:21:54.726Z,47.91
2016-09-23T12:22:54.699Z,48.01
2016-09-23T12:23:54.671Z,47.81
2016-09-23T12:24:54.645Z,48.11
2016-09-23T12:25:54.619Z,48.69
2016-09-23T12:26:54.588Z,48.59
2016-09-23T12:27:54.558Z,48.59
2016-09-23T12:28:54.535Z,47.81
2016-09-23T12:29:54.505Z,48.11
2016-09-23T12:30:54.476Z,47.91
2016-09-23T12:31:54.452Z,48.01
2016-09-23T12:32:54.421Z,47.91
2016-09-23T12:33:54.097Z,48.01
2016-09-23T12:34:54.369Z,48.11
2016-09-23T12:35:54.338Z,48.18
2016-09-23T12:36:54.311Z,48.79
2016-09-23T12:37:54.284Z,48.59
2016-09-23T12:38:53.956Z,49.17
2016-09-23T12:39:54.227Z,49.17
2016-09-23T12:40:54.201Z,48.3
2016-09-23T12:41:54.171Z,48.39
2016-09-23T12:42:54.164Z,48.52
2016-09-23T12:43:54.119Z,48.32
2016-09-23T12:44:53.789Z,47.94
2016-09-23T12:45:54.075Z,47.94
2016-09-23T12:46:54.043Z,47.07
2016-09-23T12:47:54.011Z,47.36
2016-09-23T12:48:53.981Z,47.45
2016-09-23T12:49:53.955Z,47.45
2016-09-23T12:50:53.926Z,47.45
2016-09-23T12:51:53.899Z,47.26
2016-09-23T12:52:53.874Z,46.97
2016-09-23T12:53:53.843Z,46.68
2016-09-23T12:54:53.819Z,46.97